createdAt,value
2017-08-20T00:00:10.680Z,13.55
2017-08-20T00:01:10.863Z,13.5
2017-08-20T00:02:10.656Z,13.51
2017-08-20T00:03:10.609Z,13.62
2017-08-20T00:04:10.651Z,13.48
2017-08-20T00:05:10.572Z,13.47
2017-08-20T00:06:10.552Z,13.48
2017-08-20T00:07:10.532Z,13.54
2017-08-20T00:08:10.504Z,13.51
2017-08-20T00:09:10.489Z,13.48
2017-08-20T00:10:10.460Z,13.5
2017-08-20T00:11:10.443Z,13.48
2017-08-20T00:12:10.438Z,13.48
2017-08-20T00:13:10.391Z,13.51
2017-08-20T00:14:10.381Z,13.54
2017-08-20T00:15:10.356Z,13.51
2017-08-20T00:16:10.337Z,13.47
2017-08-20T00:17:10.307Z,13.48
2017-08-20T00:18:10.288Z,13.44
2017-08-20T00:19:10.262Z,13.46
2017-08-20T00:20:10.243Z,13.41
2017-08-20T00:21:10.218Z,13.44
2017-08-20T00:22:10.225Z,13.43
2017-08-20T00:23:10.177Z,13.5
2017-08-20T00:24:10.150Z,13.46
2017-08-20T00:25:09.544Z,13.47
2017-08-20T00:26:10.140Z,13.43
2017-08-20T00:27:10.089Z,13.44
2017-08-20T00:28:10.070Z,13.38
2017-08-20T00:29:10.047Z,13.47
2017-08-20T00:30:10.026Z,13.51
2017-08-20T00:31:10.004Z,13.44
2017-08-20T00:32:10.281Z,13.44
2017-08-20T00:33:09.956Z,13.46
2017-08-20T00:34:09.935Z,13.44
2017-08-20T00:35:09.923Z,13.47
2017-08-20T00:36:09.911Z,13.47
2017-08-20T00:37:09.869Z,13.48
2017-08-20T00:38:09.846Z,13.39
2017-08-20T00:39:09.823Z,13.43
2017-08-20T00:40:09.826Z,13.36
2017-08-20T00:41:09.788Z,13.41
2017-08-20T00:42:09.767Z,13.36
2017-08-20T00:43:09.738Z,13.38
2017-08-20T00:44:09.413Z,13.38
2017-08-20T00:45:09.695Z,13.38
2017-08-20T00:46:09.674Z,13.31
2017-08-20T00:47:09.649Z,13.36
2017-08-20T00:48:09.627Z,13.35
2017-08-20T00:49:09.860Z,13.28
2017-08-20T00:50:09.286Z,13.28
2017-08-20T00:51:09.615Z,13.25
2017-08-20T00:52:09.541Z,13.24
2017-08-20T00:53:09.217Z,13.22
2017-08-20T00:54:09.192Z,13.21
2017-08-20T00:55:09.485Z,13.31
2017-08-20T00:56:09.456Z,13.24
2017-08-20T00:57:09.429Z,13.24
2017-08-20T00:58:09.319Z,13.16
2017-08-20T00:59:09.384Z,13.22
2017-08-20T01:00:09.367Z,13.24
2017-08-20T01:01:09.342Z,13.24
2017-08-20T01:02:09.325Z,13.17
2017-08-20T01:03:09.301Z,13.17
2017-08-20T01:04:08.976Z,13.22
2017-08-20T01:05:09.305Z,13.21
2017-08-20T01:06:09.236Z,13.21
2017-08-20T01:07:09.209Z,13.21
2017-08-20T01:08:09.191Z,13.16
2017-08-20T01:09:08.872Z,13.13
2017-08-20T01:10:09.153Z,13.13
2017-08-20T01:11:08.824Z,13.12
2017-08-20T01:12:09.100Z,13.13
2017-08-20T01:13:09.089Z,13.25
2017-08-20T01:14:09.061Z,13.14
2017-08-20T01:15:09.037Z,13.16
2017-08-20T01:16:09.021Z,13.09
2017-08-20T01:17:08.994Z,13.16
2017-08-20T01:18:08.970Z,13.17
2017-08-20T01:19:08.948Z,13.1
2017-08-20T01:20:08.931Z,13.1
2017-08-20T01:21:08.900Z,13.13
2017-08-20T01:22:08.880Z,13.14
2017-08-20T01:23:08.858Z,13.16
2017-08-20T01:24:08.840Z,13.09
2017-08-20T01:25:08.826Z,13.13
2017-08-20T01:26:08.499Z,13.06
2017-08-20T01:27:08.768Z,13.07
2017-08-20T01:28:08.751Z,12.95
2017-08-20T01:29:08.782Z,13.06
2017-08-20T01:30:08.709Z,12.96
2017-08-20T01:31:08.674Z,13.03
2017-08-20T01:32:08.664Z,13.04
2017-08-20T01:33:08.643Z,13.03
2017-08-20T01:34:08.622Z,13.03
2017-08-20T01:35:08.304Z,13.1
2017-08-20T01:36:08.576Z,13.04
2017-08-20T01:37:08.547Z,13.01
2017-08-20T01:38:08.532Z,13.03
2017-08-20T01:39:08.723Z,13.04
2017-08-20T01:40:08.483Z,13.03
2017-08-20T01:41:08.518Z,13.06
2017-08-20T01:42:08.446Z,13.03
2017-08-20T01:43:08.423Z,13.03
2017-08-20T01:44:08.402Z,12.98
2017-08-20T01:45:08.372Z,13.01
2017-08-20T01:46:08.353Z,13.07
2017-08-20T01:47:08.333Z,13.03
2017-08-20T01:48:08.318Z,13.03
2017-08-20T01:49:08.286Z,13.01
2017-08-20T01:50:08.267Z,13.13
2017-08-20T01:51:08.238Z,13.04
2017-08-20T01:52:08.222Z,13.07
2017-08-20T01:53:08.199Z,13.07
2017-08-20T01:54:08.184Z,13.16
2017-08-20T01:55:08.148Z,13.13
2017-08-20T01:56:08.193Z,13.04
2017-08-20T01:57:08.110Z,13.09
2017-08-20T01:58:08.087Z,13.03
2017-08-20T01:59:07.769Z,13.06
2017-08-20T02:00:08.063Z,13.07
2017-08-20T02:01:08.033Z,13.01
2017-08-20T02:02:08.020Z,13.07
2017-08-20T02:03:07.974Z,13.06
2017-08-20T02:04:07.979Z,13.03
2017-08-20T02:05:07.940Z,13.04
2017-08-20T02:06:07.919Z,13.01
2017-08-20T02:07:07.900Z,12.96
2017-08-20T02:08:07.862Z,12.98
2017-08-20T02:09:07.847Z,12.91
2017-08-20T02:10:07.828Z,12.94
2017-08-20T02:11:07.809Z,12.88
2017-08-20T02:12:07.780Z,13.01
2017-08-20T02:13:07.755Z,13.03
2017-08-20T02:14:07.788Z,12.96
2017-08-20T02:15:07.714Z,12.88
2017-08-20T02:16:07.691Z,12.89
2017-08-20T02:17:07.668Z,12.87
2017-08-20T02:18:07.653Z,12.88
2017-08-20T02:19:07.628Z,12.89
2017-08-20T02:20:07.605Z,12.98
2017-08-20T02:21:07.578Z,12.91
2017-08-20T02:22:07.597Z,12.99
2017-08-20T02:23:07.553Z,12.99
2017-08-20T02:24:07.516Z,12.92
2017-08-20T02:25:07.496Z,13.01
2017-08-20T02:26:07.473Z,12.99
2017-08-20T02:27:07.145Z,13.04
2017-08-20T02:28:07.425Z,13.03
2017-08-20T02:29:07.401Z,13.07
2017-08-20T02:30:07.385Z,13.01
2017-08-20T02:31:07.365Z,13.04
2017-08-20T02:32:07.344Z,13.12
2017-08-20T02:33:07.317Z,13.14
2017-08-20T02:34:07.297Z,13.07
2017-08-20T02:35:07.270Z,13.06
2017-08-20T02:36:07.255Z,13.13
2017-08-20T02:37:07.226Z,13.13
2017-08-20T02:38:07.211Z,13.1
2017-08-20T02:39:07.185Z,13.25
2017-08-20T02:40:07.161Z,13.14
2017-08-20T02:41:07.146Z,13.16
2017-08-20T02:42:07.122Z,13.13
2017-08-20T02:43:07.158Z,13.13
2017-08-20T02:44:07.089Z,13.21
2017-08-20T02:45:07.067Z,13.24
2017-08-20T02:46:07.062Z,13.21
2017-08-20T02:47:07.023Z,13.25
2017-08-20T02:48:06.686Z,13.24
2017-08-20T02:49:06.976Z,13.28
2017-08-20T02:50:06.944Z,13.29
2017-08-20T02:51:06.926Z,13.27
2017-08-20T02:52:06.902Z,13.35
2017-08-20T02:53:06.878Z,13.28
2017-08-20T02:54:06.857Z,13.35
2017-08-20T02:55:06.832Z,13.32
2017-08-20T02:56:06.817Z,13.35
2017-08-20T02:57:06.788Z,13.38
2017-08-20T02:58:06.521Z,13.38
2017-08-20T02:59:06.751Z,13.39
2017-08-20T03:00:06.726Z,13.36
2017-08-20T03:01:06.702Z,13.28
2017-08-20T03:02:06.687Z,13.29
2017-08-20T03:03:06.656Z,13.43
2017-08-20T03:04:06.687Z,13.41
2017-08-20T03:05:06.691Z,13.41
2017-08-20T03:06:06.592Z,13.41
2017-08-20T03:07:06.573Z,13.36
2017-08-20T03:08:06.552Z,13.38
2017-08-20T03:09:06.529Z,13.39
2017-08-20T03:10:06.503Z,13.48
2017-08-20T03:11:06.482Z,13.43
2017-08-20T03:12:06.162Z,13.41
2017-08-20T03:13:06.446Z,13.44
2017-08-20T03:14:06.116Z,13.41
2017-08-20T03:15:06.402Z,13.46
2017-08-20T03:16:06.374Z,13.43
2017-08-20T03:17:06.353Z,13.47
2017-08-20T03:18:06.326Z,13.47
2017-08-20T03:19:06.005Z,13.46
2017-08-20T03:20:05.999Z,13.47
2017-08-20T03:21:06.470Z,13.44
2017-08-20T03:22:06.243Z,13.46
2017-08-20T03:23:06.222Z,13.39
2017-08-20T03:24:06.200Z,13.46
2017-08-20T03:25:06.175Z,13.44
2017-08-20T03:26:06.358Z,13.44
2017-08-20T03:27:06.139Z,13.44
2017-08-20T03:28:06.114Z,13.47
2017-08-20T03:29:06.087Z,13.43
2017-08-20T03:30:06.072Z,13.43
2017-08-20T03:31:06.063Z,13.44
2017-08-20T03:32:06.029Z,13.47
2017-08-20T03:33:06.004Z,13.5
2017-08-20T03:34:05.987Z,13.5
2017-08-20T03:35:05.955Z,13.53
2017-08-20T03:36:05.936Z,13.5
2017-08-20T03:37:05.911Z,13.46
2017-08-20T03:38:05.894Z,13.5
2017-08-20T03:39:05.871Z,13.47
2017-08-20T03:40:05.898Z,13.46
2017-08-20T03:41:05.826Z,13.46
2017-08-20T03:42:05.536Z,13.41
2017-08-20T03:43:05.781Z,13.46
2017-08-20T03:44:05.760Z,13.44
2017-08-20T03:45:05.742Z,13.44
2017-08-20T03:46:05.718Z,13.46
2017-08-20T03:47:05.751Z,13.43
2017-08-20T03:48:05.675Z,13.44
2017-08-20T03:49:05.649Z,13.44
2017-08-20T03:50:05.631Z,13.41
2017-08-20T03:51:05.612Z,13.38
2017-08-20T03:52:05.592Z,13.43
2017-08-20T03:53:05.561Z,13.36
2017-08-20T03:54:05.546Z,13.39
2017-08-20T03:55:05.531Z,13.39
2017-08-20T03:56:05.505Z,13.44
2017-08-20T03:57:05.480Z,13.39
2017-08-20T03:58:05.459Z,13.38
2017-08-20T03:59:05.436Z,13.38
2017-08-20T04:00:05.415Z,13.5
2017-08-20T04:01:05.390Z,13.43
2017-08-20T04:02:05.372Z,13.44
2017-08-20T04:03:05.345Z,13.48
2017-08-20T04:04:05.328Z,13.5
2017-08-20T04:05:05.310Z,13.53
2017-08-20T04:06:05.281Z,13.5
2017-08-20T04:07:05.266Z,13.48
2017-08-20T04:08:05.245Z,13.5
2017-08-20T04:09:04.914Z,13.48
2017-08-20T04:10:05.195Z,13.48
2017-08-20T04:11:05.175Z,13.55
2017-08-20T04:12:05.158Z,13.65
2017-08-20T04:13:05.127Z,13.47
2017-08-20T04:14:05.358Z,13.62
2017-08-20T04:15:05.095Z,13.57
2017-08-20T04:16:05.055Z,13.54
2017-08-20T04:17:05.044Z,13.65
2017-08-20T04:18:05.039Z,13.62
2017-08-20T04:19:04.996Z,13.69
2017-08-20T04:20:04.977Z,13.61
2017-08-20T04:21:04.965Z,13.61
2017-08-20T04:22:04.930Z,13.62
2017-08-20T04:23:04.910Z,13.68
2017-08-20T04:24:04.887Z,13.72
2017-08-20T04:25:04.570Z,13.72
2017-08-20T04:26:04.846Z,13.79
2017-08-20T04:27:04.819Z,13.75
2017-08-20T04:28:04.799Z,13.71
2017-08-20T04:29:04.777Z,13.69
2017-08-20T04:30:04.770Z,13.69
2017-08-20T04:31:04.739Z,13.61
2017-08-20T04:32:04.716Z,13.61
2017-08-20T04:33:04.692Z,13.63
2017-08-20T04:34:04.671Z,13.69
2017-08-20T04:35:04.648Z,13.72
2017-08-20T04:36:04.676Z,13.68
2017-08-20T04:37:04.607Z,13.62
2017-08-20T04:38:04.633Z,13.59
2017-08-20T04:39:04.261Z,13.62
2017-08-20T04:40:04.236Z,13.63
2017-08-20T04:41:04.521Z,13.65
2017-08-20T04:42:04.498Z,13.65
2017-08-20T04:43:04.474Z,13.63
2017-08-20T04:44:04.501Z,13.62
2017-08-20T04:45:04.430Z,13.62
2017-08-20T04:46:04.428Z,13.66
2017-08-20T04:47:04.081Z,13.65
2017-08-20T04:48:04.366Z,13.66
2017-08-20T04:49:04.345Z,13.75
2017-08-20T04:50:04.027Z,13.75
2017-08-20T04:51:04.303Z,13.83
2017-08-20T04:52:04.281Z,13.73
2017-08-20T04:53:04.258Z,13.8
2017-08-20T04:54:03.943Z,13.75
2017-08-20T04:55:04.214Z,13.75
2017-08-20T04:56:04.192Z,13.73
2017-08-20T04:57:04.165Z,13.72
2017-08-20T04:58:04.148Z,13.73
2017-08-20T04:59:04.124Z,13.73
2017-08-20T05:00:04.115Z,13.75
2017-08-20T05:01:04.080Z,13.69
2017-08-20T05:02:04.056Z,13.79
2017-08-20T05:03:04.039Z,13.79
2017-08-20T05:04:03.715Z,13.72
2017-08-20T05:05:03.997Z,13.79
2017-08-20T05:06:03.972Z,13.87
2017-08-20T05:07:03.651Z,13.86
2017-08-20T05:08:03.957Z,13.81
2017-08-20T05:09:03.907Z,13.86
2017-08-20T05:10:03.891Z,13.86
2017-08-20T05:11:03.858Z,13.94
2017-08-20T05:12:03.841Z,13.99
2017-08-20T05:13:03.817Z,13.96
2017-08-20T05:14:03.506Z,13.98
2017-08-20T05:15:03.774Z,13.99
2017-08-20T05:16:03.767Z,13.94
2017-08-20T05:17:03.733Z,14.01
2017-08-20T05:18:03.711Z,14.04
2017-08-20T05:19:03.686Z,14.01
2017-08-20T05:20:03.669Z,13.99
2017-08-20T05:21:03.703Z,14.02
2017-08-20T05:22:03.622Z,14.02
2017-08-20T05:23:03.595Z,14.04
2017-08-20T05:24:03.592Z,13.99
2017-08-20T05:25:03.560Z,14.01
2017-08-20T05:26:03.538Z,14.02
2017-08-20T05:27:03.516Z,14.09
2017-08-20T05:28:03.499Z,14.12
2017-08-20T05:29:03.474Z,14.12
2017-08-20T05:30:03.450Z,14.12
2017-08-20T05:31:03.432Z,14.09
2017-08-20T05:32:03.459Z,14.16
2017-08-20T05:33:03.387Z,14.01
2017-08-20T05:34:03.368Z,14.19
2017-08-20T05:35:03.353Z,14.06
2017-08-20T05:36:03.321Z,14.27
2017-08-20T05:37:03.296Z,14.23
2017-08-20T05:38:03.530Z,14.2
2017-08-20T05:39:03.260Z,14.23
2017-08-20T05:40:02.935Z,14.23
2017-08-20T05:41:03.215Z,14.26
2017-08-20T05:42:03.207Z,14.31
2017-08-20T05:43:03.179Z,14.34
2017-08-20T05:44:03.144Z,14.29
2017-08-20T05:45:03.131Z,14.3
2017-08-20T05:46:03.115Z,14.31
2017-08-20T05:47:02.790Z,14.42
2017-08-20T05:48:03.113Z,14.45
2017-08-20T05:49:02.750Z,14.44
2017-08-20T05:50:03.319Z,14.41
2017-08-20T05:51:03.003Z,14.39
2017-08-20T05:52:02.978Z,14.48
2017-08-20T05:53:02.963Z,14.46
2017-08-20T05:54:02.935Z,14.53
2017-08-20T05:55:02.928Z,14.49
2017-08-20T05:56:02.896Z,14.38
2017-08-20T05:57:02.879Z,14.45
2017-08-20T05:58:02.855Z,14.42
2017-08-20T05:59:02.835Z,14.41
2017-08-20T06:00:02.815Z,14.45
2017-08-20T06:01:02.788Z,14.41
2017-08-20T06:02:02.769Z,14.44
2017-08-20T06:03:02.742Z,14.38
2017-08-20T06:04:02.722Z,14.52
2017-08-20T06:05:02.705Z,14.6
2017-08-20T06:06:02.683Z,14.59
2017-08-20T06:07:02.663Z,14.56
2017-08-20T06:08:02.887Z,14.6
2017-08-20T06:09:02.620Z,14.54
2017-08-20T06:10:02.599Z,14.61
2017-08-20T06:11:02.580Z,14.67
2017-08-20T06:12:02.559Z,14.78
2017-08-20T06:13:02.533Z,14.78
2017-08-20T06:14:02.511Z,14.78
2017-08-20T06:15:02.490Z,14.93
2017-08-20T06:16:02.465Z,14.98
2017-08-20T06:17:02.456Z,14.95
2017-08-20T06:18:02.426Z,15
2017-08-20T06:19:02.403Z,15.11
2017-08-20T06:20:02.386Z,15
2017-08-20T06:21:02.369Z,15.16
2017-08-20T06:22:02.347Z,15.09
2017-08-20T06:23:02.325Z,15.13
2017-08-20T06:24:02.300Z,15.18
2017-08-20T06:25:02.277Z,15.2
2017-08-20T06:26:02.261Z,15.3
2017-08-20T06:27:02.235Z,15.23
2017-08-20T06:28:02.220Z,15.27
2017-08-20T06:29:02.201Z,15.19
2017-08-20T06:30:02.172Z,15.15
2017-08-20T06:31:02.159Z,15.3
2017-08-20T06:32:02.134Z,15.27
2017-08-20T06:33:02.130Z,15.28
2017-08-20T06:34:02.089Z,15.4
2017-08-20T06:35:02.072Z,15.33
2017-08-20T06:36:01.747Z,15.33
2017-08-20T06:37:02.027Z,15.38
2017-08-20T06:38:02.010Z,15.38
2017-08-20T06:39:01.983Z,15.33
2017-08-20T06:40:01.674Z,15.33
2017-08-20T06:41:01.952Z,15.35
2017-08-20T06:42:02.737Z,15.35
2017-08-20T06:43:02.960Z,15.46
2017-08-20T06:44:01.889Z,15.41
2017-08-20T06:45:01.862Z,15.52
2017-08-20T06:46:01.947Z,15.56
2017-08-20T06:47:01.820Z,15.78
2017-08-20T06:48:01.500Z,16.03
2017-08-20T06:49:01.473Z,16.18
2017-08-20T06:50:02.009Z,16.27
2017-08-20T06:51:01.739Z,16.48
2017-08-20T06:52:01.721Z,16.52
2017-08-20T06:53:01.701Z,16.48
2017-08-20T06:54:01.670Z,16.47
2017-08-20T06:55:01.664Z,16.26
2017-08-20T06:56:01.649Z,16.26
2017-08-20T06:57:01.627Z,16.27
2017-08-20T06:58:01.601Z,16.25
2017-08-20T06:59:01.576Z,16.51
2017-08-20T07:00:01.558Z,16.88
2017-08-20T07:01:01.546Z,17.36
2017-08-20T07:02:01.510Z,17.84
2017-08-20T07:03:01.499Z,18.14
2017-08-20T07:04:01.475Z,18.54
2017-08-20T07:05:01.161Z,18.54
2017-08-20T07:06:01.434Z,18.53
2017-08-20T07:07:01.436Z,18.46
2017-08-20T07:08:01.408Z,18.26
2017-08-20T07:09:01.094Z,18.32
2017-08-20T07:10:01.070Z,18.53
2017-08-20T07:11:01.339Z,18.87
2017-08-20T07:12:01.321Z,19.16
2017-08-20T07:13:01.305Z,19.23
2017-08-20T07:14:01.311Z,19.38
2017-08-20T07:15:01.270Z,19.5
2017-08-20T07:16:01.249Z,19.57
2017-08-20T07:17:01.240Z,19.6
2017-08-20T07:18:01.220Z,19.83
2017-08-20T07:19:01.200Z,20.17
2017-08-20T07:20:01.183Z,20.48
2017-08-20T07:21:01.284Z,20.85
2017-08-20T07:22:01.155Z,21.15
2017-08-20T07:23:01.136Z,21.45
2017-08-20T07:24:01.105Z,21.43
2017-08-20T07:25:01.107Z,21.24
2017-08-20T07:26:01.078Z,21.24
2017-08-20T07:27:01.060Z,21.34
2017-08-20T07:28:01.094Z,21.59
2017-08-20T07:29:01.032Z,21.94
2017-08-20T07:30:01.011Z,22.31
2017-08-20T07:31:00.995Z,22.41
2017-08-20T07:32:00.985Z,22.2
2017-08-20T07:33:00.961Z,22.09
2017-08-20T07:34:00.950Z,22.21
2017-08-20T07:35:00.934Z,22.49
2017-08-20T07:36:00.616Z,22.59
2017-08-20T07:37:01.100Z,22.54
2017-08-20T07:38:00.884Z,22.46
2017-08-20T07:39:00.872Z,22.6
2017-08-20T07:40:00.562Z,22.44
2017-08-20T07:41:00.842Z,22.48
2017-08-20T07:42:01.019Z,22.38
2017-08-20T07:43:00.864Z,22.48
2017-08-20T07:44:00.806Z,22.66
2017-08-20T07:45:00.773Z,22.86
2017-08-20T07:46:00.760Z,23.01
2017-08-20T07:47:00.748Z,22.97
2017-08-20T07:48:00.737Z,23.03
2017-08-20T07:49:00.123Z,23.37
2017-08-20T07:50:00.707Z,23.45
2017-08-20T07:51:00.695Z,23.26
2017-08-20T07:52:00.683Z,22.82
2017-08-20T07:53:00.658Z,22.48
2017-08-20T07:54:00.732Z,22.14
2017-08-20T07:55:00.632Z,21.73
2017-08-20T07:56:00.613Z,21.55
2017-08-20T07:57:00.602Z,21.56
2017-08-20T07:58:00.587Z,21.85
2017-08-20T07:59:00.650Z,22.19
2017-08-20T08:00:00.604Z,22.45
2017-08-20T08:01:00.656Z,22.82
2017-08-20T08:02:00.547Z,22.93
2017-08-20T08:03:00.541Z,23.01
2017-08-20T08:04:00.495Z,23.09
2017-08-20T08:05:00.482Z,23.16
2017-08-20T08:06:00.604Z,23.04
2017-08-20T08:07:00.502Z,22.86
2017-08-20T08:08:00.154Z,22.75
2017-08-20T08:09:00.638Z,22.69
2017-08-20T08:10:00.418Z,22.94
2017-08-20T08:11:00.439Z,23.06
2017-08-20T08:12:00.381Z,23.18
2017-08-20T08:13:00.363Z,23.45
2017-08-20T08:14:00.052Z,23.93
2017-08-20T08:15:00.352Z,24.26
2017-08-20T08:16:00.341Z,24.55
2017-08-20T08:17:00.012Z,25.01
2017-08-20T08:18:00.300Z,25.24
2017-08-20T08:19:00.303Z,25.57
2017-08-20T08:20:00.275Z,25.97
2017-08-20T08:21:00.258Z,26.01
2017-08-20T08:22:00.314Z,26.53
2017-08-20T08:23:00.233Z,26.78
2017-08-20T08:24:00.282Z,26.72
2017-08-20T08:25:00.208Z,26.35
2017-08-20T08:26:00.209Z,26.04
2017-08-20T08:27:00.200Z,26
2017-08-20T08:28:00.178Z,25.91
2017-08-20T08:29:00.167Z,25.6
2017-08-20T08:30:00.151Z,25.22
2017-08-20T08:31:00.157Z,25.04
2017-08-20T08:31:59.834Z,24.64
2017-08-20T08:32:59.824Z,24.3
2017-08-20T08:34:00.108Z,23.99
2017-08-20T08:35:00.088Z,24.04
2017-08-20T08:36:00.136Z,24.12
2017-08-20T08:37:00.062Z,24.48
2017-08-20T08:38:00.056Z,24.92
2017-08-20T08:39:00.039Z,25.34
2017-08-20T08:40:00.234Z,25.89
2017-08-20T08:41:00.015Z,26.38
2017-08-20T08:42:00.010Z,26.83
2017-08-20T08:42:59.999Z,27.08
2017-08-20T08:43:59.997Z,27.49
2017-08-20T08:44:59.972Z,27.88
2017-08-20T08:46:00.015Z,27.93
2017-08-20T08:46:59.956Z,27.99
2017-08-20T08:47:59.944Z,28.2
2017-08-20T08:48:59.636Z,28.42
2017-08-20T08:49:59.935Z,28.14
2017-08-20T08:50:59.946Z,27.77
2017-08-20T08:51:59.652Z,27.71
2017-08-20T08:52:59.896Z,27.38
2017-08-20T08:53:59.881Z,27.2
2017-08-20T08:54:59.888Z,26.91
2017-08-20T08:55:59.871Z,26.64
2017-08-20T08:56:59.855Z,26.51
2017-08-20T08:57:59.843Z,26.39
2017-08-20T08:58:59.831Z,26.31
2017-08-20T08:59:59.826Z,26.32
2017-08-20T09:00:59.821Z,26.54
2017-08-20T09:02:00.027Z,26.64
2017-08-20T09:02:59.798Z,26.69
2017-08-20T09:03:59.793Z,26.9
2017-08-20T09:04:59.789Z,26.97
2017-08-20T09:05:59.771Z,26.56
2017-08-20T09:06:59.753Z,26.2
2017-08-20T09:07:59.767Z,25.66
2017-08-20T09:08:59.733Z,24.99
2017-08-20T09:09:59.732Z,24.33
2017-08-20T09:10:59.431Z,23.77
2017-08-20T09:11:59.707Z,23.29
2017-08-20T09:12:59.384Z,23.32
2017-08-20T09:13:59.374Z,23.69
2017-08-20T09:14:59.674Z,24.16
2017-08-20T09:15:59.660Z,24.6
2017-08-20T09:16:59.343Z,25.11
2017-08-20T09:17:59.627Z,25.61
2017-08-20T09:18:59.640Z,25.93
2017-08-20T09:19:59.619Z,26.32
2017-08-20T09:20:59.669Z,26.51
2017-08-20T09:21:59.577Z,26.51
2017-08-20T09:22:59.574Z,26.51
2017-08-20T09:23:59.613Z,26.19
2017-08-20T09:24:59.552Z,26.11
2017-08-20T09:25:59.539Z,26.04
2017-08-20T09:26:59.530Z,25.97
2017-08-20T09:27:59.517Z,25.72
2017-08-20T09:28:59.505Z,25.41
2017-08-20T09:29:59.491Z,24.97
2017-08-20T09:30:59.480Z,24.48
2017-08-20T09:31:59.472Z,24.21
2017-08-20T09:32:59.466Z,23.93
2017-08-20T09:33:59.454Z,23.89
2017-08-20T09:34:59.141Z,23.86
2017-08-20T09:35:59.122Z,23.64
2017-08-20T09:37:14.019Z,23.45
2017-08-20T09:37:59.392Z,23.38
2017-08-20T09:38:59.382Z,23.39
2017-08-20T09:39:59.418Z,23.52
2017-08-20T09:40:59.354Z,23.67
2017-08-20T09:41:59.380Z,23.89
2017-08-20T09:42:59.389Z,24.05
2017-08-20T09:43:59.358Z,24.09
2017-08-20T09:44:59.303Z,24.06
2017-08-20T09:45:59.285Z,23.69
2017-08-20T09:46:59.282Z,23.25
2017-08-20T09:47:59.268Z,22.85
2017-08-20T09:48:59.254Z,22.57
2017-08-20T09:49:59.238Z,22.56
2017-08-20T09:50:59.219Z,22.21
2017-08-20T09:51:59.210Z,22.09
2017-08-20T09:52:59.192Z,21.83
2017-08-20T09:53:59.189Z,21.63
2017-08-20T09:54:59.163Z,21.53
2017-08-20T09:55:59.148Z,21.55
2017-08-20T09:56:59.128Z,21.33
2017-08-20T09:57:59.122Z,21.26
2017-08-20T09:58:59.098Z,21.56
2017-08-20T09:59:59.107Z,21.79
2017-08-20T10:01:13.685Z,22.54
2017-08-20T10:01:59.112Z,22.97
2017-08-20T10:02:59.045Z,23.45
2017-08-20T10:03:59.021Z,24.12
2017-08-20T10:04:59.010Z,24.39
2017-08-20T10:05:58.995Z,24.64
2017-08-20T10:06:58.988Z,24.6
2017-08-20T10:07:58.661Z,24.63
2017-08-20T10:08:58.956Z,24.53
2017-08-20T10:09:58.934Z,24.61
2017-08-20T10:10:58.925Z,24.36
2017-08-20T10:11:58.910Z,24.02
2017-08-20T10:12:58.601Z,23.68
2017-08-20T10:13:58.884Z,23.41
2017-08-20T10:14:58.921Z,23.15
2017-08-20T10:15:58.560Z,23.03
2017-08-20T10:16:58.900Z,22.79
2017-08-20T10:17:58.826Z,22.57
2017-08-20T10:18:58.822Z,22.35
2017-08-20T10:19:58.805Z,22.11
2017-08-20T10:20:58.490Z,21.91
2017-08-20T10:21:58.822Z,21.74
2017-08-20T10:22:58.751Z,21.56
2017-08-20T10:23:58.735Z,21.26
2017-08-20T10:24:58.714Z,21.18
2017-08-20T10:25:58.712Z,20.96
2017-08-20T10:26:58.687Z,20.93
2017-08-20T10:27:58.671Z,20.82
2017-08-20T10:28:58.653Z,20.9
2017-08-20T10:29:58.642Z,20.79
2017-08-20T10:30:58.619Z,20.68
2017-08-20T10:31:58.604Z,20.46
2017-08-20T10:32:58.592Z,20.35
2017-08-20T10:33:58.568Z,20.19
2017-08-20T10:34:58.252Z,19.97
2017-08-20T10:35:58.278Z,19.87
2017-08-20T10:36:58.219Z,19.79
2017-08-20T10:37:58.511Z,19.8
2017-08-20T10:38:58.483Z,19.68
2017-08-20T10:39:58.469Z,19.7
2017-08-20T10:40:58.457Z,19.58
2017-08-20T10:41:58.431Z,19.61
2017-08-20T10:42:58.410Z,19.55
2017-08-20T10:43:58.405Z,19.58
2017-08-20T10:44:58.380Z,19.52
2017-08-20T10:45:58.115Z,19.65
2017-08-20T10:46:58.339Z,19.75
2017-08-20T10:47:58.324Z,19.71
2017-08-20T10:48:58.021Z,19.79
2017-08-20T10:49:58.297Z,19.8
2017-08-20T10:50:58.269Z,19.8
2017-08-20T10:51:58.245Z,19.82
2017-08-20T10:52:57.925Z,19.95
2017-08-20T10:53:58.215Z,20.04
2017-08-20T10:54:57.890Z,20.1
2017-08-20T10:55:58.222Z,20.16
2017-08-20T10:56:58.155Z,20.19
2017-08-20T10:57:58.144Z,20.19
2017-08-20T10:58:58.127Z,20.2
2017-08-20T10:59:58.102Z,20.23
2017-08-20T11:00:58.084Z,20.17
2017-08-20T11:01:58.074Z,20.22
2017-08-20T11:02:58.041Z,20.15
2017-08-20T11:03:58.031Z,20.08
2017-08-20T11:04:58.243Z,19.92
2017-08-20T11:05:57.992Z,20
2017-08-20T11:06:57.971Z,19.94
2017-08-20T11:07:57.967Z,19.82
2017-08-20T11:08:57.937Z,19.89
2017-08-20T11:09:57.965Z,19.92
2017-08-20T11:10:57.898Z,19.95
2017-08-20T11:11:57.881Z,20.08
2017-08-20T11:12:57.865Z,20.04
2017-08-20T11:13:57.839Z,20.2
2017-08-20T11:14:57.844Z,20.2
2017-08-20T11:15:57.805Z,20.31
2017-08-20T11:16:57.785Z,20.37
2017-08-20T11:17:57.784Z,20.57
2017-08-20T11:18:57.452Z,20.68
2017-08-20T11:19:57.733Z,20.72
2017-08-20T11:20:57.417Z,20.81
2017-08-20T11:21:57.700Z,20.91
2017-08-20T11:22:57.690Z,21
2017-08-20T11:23:57.668Z,21.06
2017-08-20T11:24:57.643Z,21.09
2017-08-20T11:25:57.627Z,21.13
2017-08-20T11:26:57.611Z,21.11
2017-08-20T11:27:57.281Z,21.06
2017-08-20T11:28:57.268Z,21.01
2017-08-20T11:29:57.561Z,21.03
2017-08-20T11:30:57.546Z,21.01
2017-08-20T11:31:57.522Z,20.96
2017-08-20T11:32:57.500Z,20.96
2017-08-20T11:33:57.176Z,20.97
2017-08-20T11:34:57.462Z,20.96
2017-08-20T11:35:57.877Z,20.97
2017-08-20T11:36:57.430Z,21.03
2017-08-20T11:37:57.455Z,20.98
2017-08-20T11:38:57.087Z,20.96
2017-08-20T11:39:57.073Z,20.81
2017-08-20T11:40:57.365Z,20.85
2017-08-20T11:41:57.341Z,20.91
2017-08-20T11:42:57.324Z,20.85
2017-08-20T11:43:57.006Z,20.91
2017-08-20T11:44:57.282Z,20.94
2017-08-20T11:45:57.270Z,20.96
2017-08-20T11:46:57.302Z,21
2017-08-20T11:47:57.235Z,21.01
2017-08-20T11:48:57.215Z,21.05
2017-08-20T11:49:57.193Z,21.09
2017-08-20T11:50:57.108Z,21.18
2017-08-20T11:51:57.158Z,21.15
2017-08-20T11:52:57.140Z,21.22
2017-08-20T11:53:57.168Z,21.19
2017-08-20T11:54:57.110Z,21.22
2017-08-20T11:55:57.084Z,21.36
2017-08-20T11:56:57.066Z,21.42
2017-08-20T11:57:57.051Z,21.55
2017-08-20T11:58:56.790Z,21.45
2017-08-20T11:59:57.307Z,21.43
2017-08-20T12:00:56.998Z,21.38
2017-08-20T12:01:56.985Z,21.36
2017-08-20T12:02:56.967Z,21.4
2017-08-20T12:03:56.948Z,21.43
2017-08-20T12:04:56.936Z,21.37
2017-08-20T12:05:57.120Z,21.4
2017-08-20T12:06:56.891Z,21.4
2017-08-20T12:07:56.880Z,21.55
2017-08-20T12:08:56.850Z,21.49
2017-08-20T12:09:56.838Z,21.58
2017-08-20T12:10:56.819Z,21.67
2017-08-20T12:11:56.806Z,21.73
2017-08-20T12:12:56.790Z,21.77
2017-08-20T12:13:56.764Z,21.77
2017-08-20T12:14:56.761Z,22.01
2017-08-20T12:15:56.752Z,22.05
2017-08-20T12:16:56.724Z,22.02
2017-08-20T12:17:56.691Z,22.09
2017-08-20T12:18:56.675Z,22.08
2017-08-20T12:19:56.670Z,21.99
2017-08-20T12:20:56.653Z,22.14
2017-08-20T12:21:56.678Z,22.17
2017-08-20T12:22:56.508Z,22.15
2017-08-20T12:23:56.594Z,22.15
2017-08-20T12:24:56.638Z,22.23
2017-08-20T12:25:56.564Z,22.11
2017-08-20T12:26:56.550Z,22.15
2017-08-20T12:27:56.525Z,22.15
2017-08-20T12:28:56.522Z,22.17
2017-08-20T12:29:56.489Z,22.15
2017-08-20T12:30:56.485Z,22.15
2017-08-20T12:31:56.153Z,22.06
2017-08-20T12:32:56.446Z,22.05
2017-08-20T12:33:56.468Z,21.99
2017-08-20T12:34:56.404Z,21.83
2017-08-20T12:35:56.389Z,21.85
2017-08-20T12:36:56.384Z,21.66
2017-08-20T12:37:56.351Z,21.63
2017-08-20T12:38:56.342Z,21.55
2017-08-20T12:39:56.316Z,21.38
2017-08-20T12:40:56.303Z,21.3
2017-08-20T12:41:56.285Z,21.13
2017-08-20T12:42:56.269Z,21.12
2017-08-20T12:43:56.249Z,20.94
2017-08-20T12:44:56.237Z,20.98
2017-08-20T12:45:56.216Z,20.93
2017-08-20T12:46:56.204Z,20.97
2017-08-20T12:47:56.191Z,20.98
2017-08-20T12:48:56.159Z,20.91
2017-08-20T12:49:56.148Z,21
2017-08-20T12:50:56.129Z,20.96
2017-08-20T12:51:56.315Z,21.15
2017-08-20T12:52:56.091Z,21.11
2017-08-20T12:53:55.791Z,21.27